Time;durP1;ratioP1;P1;durP2;ratioP2;P2;SDS_P1;SDS_P2;PMS_P1;PMS_P2;Temp;Humidity;BMP_temperature;BMP_pressure;BME280_temperature;BME280_humidity;BME280_pressure;Samples;Min_cycle;Max_cycle;Signal;HPM_P1;HPM_P2
2021/12/24 00:01:28;;;;;;;80.95;31.25;;;;;;;;;;8399191;28;20044;-76
2021/12/24 00:05:33;;;;;;;67.07;25.83;;;;;;;;;;8403174;28;20048;-77
2021/12/24 00:09:36;;;;;;;64.78;25.73;;;;;;;;;;8402412;28;20040;-76
2021/12/24 00:13:43;;;;;;;90.50;32.03;;;;;;;;;;8402398;28;20107;-76
2021/12/24 00:17:47;;;;;;;71.25;28.08;;;;;;;;;;8401629;28;20045;-76
2021/12/24 00:22:26;;;;;;;58.67;24.67;;;;;;;;;;8401802;28;20053;-76
2021/12/24 00:35:16;;;;;;;69.75;28.38;;;;;;;;;;8401259;28;20408;-76
2021/12/24 00:39:18;;;;;;;62.28;25.02;;;;;;;;;;8401341;28;20041;-76
2021/12/24 00:43:21;;;;;;;62.53;24.77;;;;;;;;;;8401098;28;20120;-76
2021/12/24 00:47:25;;;;;;;67.10;27.00;;;;;;;;;;8401382;28;20415;-76
2021/12/24 00:51:43;;;;;;;56.92;26.98;;;;;;;;;;8400676;28;20048;-75
2021/12/24 00:55:45;;;;;;;75.22;33.03;;;;;;;;;;8401598;28;20502;-76
2021/12/24 00:59:48;;;;;;;51.55;23.23;;;;;;;;;;8400831;28;20047;-74
2021/12/24 01:03:51;;;;;;;57.17;25.98;;;;;;;;;;8401455;28;20045;-76
2021/12/24 01:07:55;;;;;;;48.42;21.83;;;;;;;;;;8386998;28;20045;-74
2021/12/24 01:11:58;;;;;;;47.10;21.38;;;;;;;;;;8366847;28;20091;-75
2021/12/24 01:16:12;;;;;;;56.70;22.77;;;;;;;;;;8373576;28;20044;-75
2021/12/24 01:20:24;;;;;;;53.60;22.67;;;;;;;;;;8400480;28;20418;-75
2021/12/24 01:24:34;;;;;;;51.47;23.52;;;;;;;;;;8400965;28;20078;-75
2021/12/24 01:28:59;;;;;;;55.85;24.73;;;;;;;;;;8399747;28;20045;-74
2021/12/24 01:46:04;;;;;;;68.30;29.47;;;;;;;;;;8394658;28;20045;-76
2021/12/24 01:50:07;;;;;;;72.50;31.30;;;;;;;;;;8399208;28;20052;-75
2021/12/24 01:54:11;;;;;;;63.28;26.45;;;;;;;;;;8398162;28;20048;-74
2021/12/24 01:58:19;;;;;;;66.65;29.63;;;;;;;;;;8398559;28;20040;-75
2021/12/24 02:02:21;;;;;;;64.82;27.17;;;;;;;;;;8398407;28;20089;-74
2021/12/24 02:06:24;;;;;;;67.88;30.02;;;;;;;;;;8398872;28;20040;-74
2021/12/24 02:10:27;;;;;;;49.00;21.77;;;;;;;;;;8398497;28;20437;-75
2021/12/24 02:14:35;;;;;;;52.05;23.98;;;;;;;;;;8398831;28;20488;-74
2021/12/24 02:28:16;;;;;;;53.75;23.92;;;;;;;;;;8398081;28;20123;-73
2021/12/24 02:31:53;;;;;;;46.78;21.83;;;;;;;;;;8383810;28;20085;-75
2021/12/24 02:35:56;;;;;;;52.80;22.13;;;;;;;;;;8397378;28;20454;-74
2021/12/24 02:40:00;;;;;;;55.55;25.23;;;;;;;;;;8397537;28;20624;-75
2021/12/24 02:44:02;;;;;;;58.30;24.90;;;;;;;;;;8397730;28;20124;-76
2021/12/24 02:48:35;;;;;;;57.25;25.85;;;;;;;;;;8396862;28;20037;-75
2021/12/24 02:57:07;;;;;;;56.05;23.52;;;;;;;;;;8397428;28;20048;-75
2021/12/24 03:01:11;;;;;;;48.88;21.92;;;;;;;;;;8397150;28;20411;-75
2021/12/24 03:05:15;;;;;;;51.92;23.30;;;;;;;;;;8396930;28;20055;-75
2021/12/24 03:09:20;;;;;;;49.95;21.42;;;;;;;;;;8397210;28;20048;-78
2021/12/24 03:13:25;;;;;;;62.15;26.42;;;;;;;;;;8396590;28;20051;-75
2021/12/24 03:17:28;;;;;;;55.60;23.15;;;;;;;;;;8396734;28;20049;-76
2021/12/24 03:21:36;;;;;;;53.33;20.50;;;;;;;;;;8396549;28;20045;-75
2021/12/24 03:25:39;;;;;;;51.00;21.30;;;;;;;;;;8396322;28;20048;-77
2021/12/24 03:29:43;;;;;;;60.85;26.13;;;;;;;;;;8396133;28;20052;-75
2021/12/24 03:33:46;;;;;;;52.08;24.48;;;;;;;;;;8396116;28;20068;-77
2021/12/24 03:37:48;;;;;;;43.88;19.83;;;;;;;;;;8395911;28;20044;-75
2021/12/24 03:41:51;;;;;;;62.55;27.30;;;;;;;;;;8396564;28;20049;-75
2021/12/24 03:46:02;;;;;;;48.95;23.85;;;;;;;;;;8396962;28;20392;-76
2021/12/24 03:50:09;;;;;;;45.72;19.92;;;;;;;;;;8396525;28;20047;-76
2021/12/24 03:58:32;;;;;;;36.40;17.65;;;;;;;;;;8396114;28;20056;-74
2021/12/24 04:02:36;;;;;;;30.80;14.82;;;;;;;;;;8396058;28;20048;-73
2021/12/24 04:06:39;;;;;;;41.03;17.88;;;;;;;;;;8396293;28;20044;-75
2021/12/24 04:10:41;;;;;;;42.80;21.27;;;;;;;;;;8396115;28;20072;-76
2021/12/24 04:14:44;;;;;;;44.75;21.15;;;;;;;;;;8396491;28;20053;-75
2021/12/24 04:18:55;;;;;;;40.63;20.85;;;;;;;;;;8396046;28;20052;-75
2021/12/24 04:27:18;;;;;;;32.47;16.38;;;;;;;;;;8395898;28;20051;-75
2021/12/24 04:31:27;;;;;;;36.75;19.02;;;;;;;;;;8395035;28;20072;-76
2021/12/24 04:35:39;;;;;;;33.65;17.10;;;;;;;;;;8388282;28;20411;-76
2021/12/24 04:39:52;;;;;;;43.65;22.80;;;;;;;;;;8395274;28;20041;-75
2021/12/24 04:52:56;;;;;;;29.17;13.85;;;;;;;;;;8396302;28;20506;-74
2021/12/24 05:01:31;;;;;;;33.83;16.67;;;;;;;;;;8400523;28;20040;-76
2021/12/24 05:05:44;;;;;;;32.05;15.38;;;;;;;;;;8388667;28;20098;-77
2021/12/24 05:09:48;;;;;;;30.70;15.90;;;;;;;;;;8400379;28;20090;-76
2021/12/24 05:13:52;;;;;;;31.10;15.90;;;;;;;;;;8400467;28;20067;-75
2021/12/24 05:18:09;;;;;;;32.17;16.33;;;;;;;;;;8400653;28;20607;-76
2021/12/24 05:22:11;;;;;;;27.38;14.15;;;;;;;;;;8400781;28;20055;-76
2021/12/24 05:26:27;;;;;;;34.17;16.27;;;;;;;;;;8400348;28;20477;-76
2021/12/24 05:30:29;;;;;;;28.30;13.82;;;;;;;;;;8399121;28;20052;-75
2021/12/24 05:34:33;;;;;;;32.25;15.77;;;;;;;;;;8399852;28;20049;-75
2021/12/24 05:38:35;;;;;;;31.67;15.68;;;;;;;;;;8399739;28;20052;-75
2021/12/24 05:42:39;;;;;;;34.50;19.70;;;;;;;;;;8399985;28;20049;-79
2021/12/24 05:46:42;;;;;;;36.40;18.30;;;;;;;;;;8398540;28;20094;-76
2021/12/24 05:50:45;;;;;;;28.58;14.88;;;;;;;;;;8399824;28;20481;-78
2021/12/24 05:54:47;;;;;;;41.67;20.83;;;;;;;;;;8399215;28;20064;-76
2021/12/24 05:58:52;;;;;;;34.42;18.15;;;;;;;;;;8398200;28;20048;-76
2021/12/24 06:02:54;;;;;;;36.65;17.58;;;;;;;;;;8398516;28;20044;-79
2021/12/24 06:06:57;;;;;;;34.80;18.77;;;;;;;;;;8398966;28;20059;-77
2021/12/24 06:10:59;;;;;;;34.28;17.35;;;;;;;;;;8399023;28;20476;-76
2021/12/24 06:15:06;;;;;;;38.50;19.98;;;;;;;;;;8397814;28;20139;-75
2021/12/24 06:19:09;;;;;;;34.30;15.88;;;;;;;;;;8398681;28;20368;-75
2021/12/24 06:23:12;;;;;;;34.67;18.48;;;;;;;;;;8398830;28;20041;-74
2021/12/24 06:27:15;;;;;;;33.00;14.93;;;;;;;;;;8397282;28;20480;-74
2021/12/24 06:31:19;;;;;;;30.10;14.68;;;;;;;;;;8397653;28;20124;-76
2021/12/24 06:35:21;;;;;;;38.15;15.88;;;;;;;;;;8397690;28;20083;-76
2021/12/24 06:39:25;;;;;;;34.13;15.90;;;;;;;;;;8395257;28;20041;-75
2021/12/24 06:43:28;;;;;;;33.63;17.35;;;;;;;;;;8364857;28;20053;-74
2021/12/24 06:47:32;;;;;;;33.08;16.45;;;;;;;;;;8382115;28;20429;-75
2021/12/24 06:51:35;;;;;;;32.50;16.65;;;;;;;;;;8397700;28;20048;-74
2021/12/24 06:55:38;;;;;;;35.88;17.38;;;;;;;;;;8397473;28;20162;-75
2021/12/24 06:59:40;;;;;;;31.77;16.73;;;;;;;;;;8397359;28;20055;-75
2021/12/24 07:03:44;;;;;;;35.38;18.50;;;;;;;;;;8391255;28;20128;-75
2021/12/24 07:07:47;;;;;;;31.70;17.02;;;;;;;;;;8365018;28;20053;-78
2021/12/24 07:11:50;;;;;;;33.58;16.42;;;;;;;;;;8363533;28;20056;-76
2021/12/24 07:15:53;;;;;;;30.17;16.65;;;;;;;;;;8394493;28;20044;-80
2021/12/24 07:19:57;;;;;;;38.97;19.20;;;;;;;;;;8396740;28;20124;-74
2021/12/24 07:24:00;;;;;;;45.88;23.90;;;;;;;;;;8385457;28;20059;-75
2021/12/24 07:28:03;;;;;;;52.03;24.25;;;;;;;;;;8392019;28;20036;-79
2021/12/24 07:32:07;;;;;;;35.58;19.63;;;;;;;;;;8394448;28;20059;-77
2021/12/24 07:36:11;;;;;;;36.95;19.65;;;;;;;;;;8393789;28;20055;-78
2021/12/24 07:40:15;;;;;;;35.15;17.55;;;;;;;;;;8367423;28;20478;-78
2021/12/24 07:44:19;;;;;;;36.50;18.00;;;;;;;;;;8397149;28;20410;-76
2021/12/24 07:48:27;;;;;;;45.78;21.15;;;;;;;;;;8396503;28;20045;-77
2021/12/24 07:52:32;;;;;;;36.38;17.13;;;;;;;;;;8396538;28;20123;-82
2021/12/24 07:56:35;;;;;;;60.00;25.80;;;;;;;;;;8396843;28;20098;-79
2021/12/24 08:00:39;;;;;;;39.30;21.98;;;;;;;;;;8389081;28;20052;-76
2021/12/24 08:04:43;;;;;;;33.55;17.00;;;;;;;;;;8380222;28;20124;-79
2021/12/24 08:08:47;;;;;;;44.75;20.58;;;;;;;;;;8378632;28;20048;-80
2021/12/24 08:12:50;;;;;;;34.67;18.00;;;;;;;;;;8396120;28;20045;-79
2021/12/24 08:16:53;;;;;;;34.63;17.90;;;;;;;;;;8395710;28;20052;-79
2021/12/24 08:20:55;;;;;;;32.55;17.33;;;;;;;;;;8397826;28;20102;-79
2021/12/24 08:25:00;;;;;;;43.53;21.10;;;;;;;;;;8401568;28;20079;-80
2021/12/24 08:29:03;;;;;;;36.10;18.77;;;;;;;;;;8402042;28;20041;-77
2021/12/24 08:33:14;;;;;;;35.40;17.40;;;;;;;;;;8402255;28;20044;-78
2021/12/24 08:37:17;;;;;;;33.58;16.83;;;;;;;;;;8401282;28;20064;-78
2021/12/24 08:41:21;;;;;;;30.08;14.82;;;;;;;;;;8400296;28;20041;-77
2021/12/24 08:45:23;;;;;;;33.85;16.40;;;;;;;;;;8401388;28;20048;-78
2021/12/24 08:49:26;;;;;;;37.83;18.92;;;;;;;;;;8400299;28;20462;-78
2021/12/24 08:53:29;;;;;;;30.67;15.55;;;;;;;;;;8400389;28;20123;-78
2021/12/24 08:57:34;;;;;;;31.23;14.82;;;;;;;;;;8401510;28;20045;-79
2021/12/24 09:01:38;;;;;;;27.10;14.43;;;;;;;;;;8397697;28;20079;-77
2021/12/24 09:05:41;;;;;;;27.52;14.35;;;;;;;;;;8395114;28;20053;-78
2021/12/24 09:09:44;;;;;;;24.45;13.27;;;;;;;;;;8401330;28;20048;-78
2021/12/24 09:13:49;;;;;;;27.60;15.57;;;;;;;;;;8399284;28;20056;-77
2021/12/24 09:17:53;;;;;;;29.52;15.68;;;;;;;;;;8401112;28;20052;-78
2021/12/24 09:21:57;;;;;;;32.60;15.07;;;;;;;;;;8398617;28;20090;-76
2021/12/24 09:26:00;;;;;;;33.55;18.35;;;;;;;;;;8399758;28;20051;-77
2021/12/24 09:30:07;;;;;;;30.50;18.00;;;;;;;;;;8385314;28;20041;-76
2021/12/24 09:34:10;;;;;;;34.35;18.15;;;;;;;;;;8377035;28;20056;-78
2021/12/24 09:38:14;;;;;;;29.77;16.27;;;;;;;;;;8399918;28;20056;-77
2021/12/24 09:42:17;;;;;;;29.33;15.43;;;;;;;;;;8400136;28;20044;-78
2021/12/24 09:46:21;;;;;;;34.47;17.20;;;;;;;;;;8387442;28;20404;-77
2021/12/24 09:50:28;;;;;;;34.95;17.63;;;;;;;;;;8396321;28;20045;-77
2021/12/24 09:54:31;;;;;;;37.42;17.33;;;;;;;;;;8399278;28;20044;-78
2021/12/24 09:58:35;;;;;;;35.08;16.75;;;;;;;;;;8399641;28;20044;-77
2021/12/24 10:02:46;;;;;;;35.28;16.25;;;;;;;;;;8398804;28;20054;-76
2021/12/24 10:06:54;;;;;;;26.88;13.90;;;;;;;;;;8398654;28;20044;-76
2021/12/24 10:11:09;;;;;;;24.38;12.65;;;;;;;;;;8398965;28;20044;-76
2021/12/24 10:15:13;;;;;;;26.92;12.77;;;;;;;;;;8398588;28;20452;-76
2021/12/24 10:19:19;;;;;;;20.48;11.35;;;;;;;;;;8398421;28;20048;-76
2021/12/24 10:23:57;;;;;;;24.60;12.27;;;;;;;;;;8397167;28;20106;-76
2021/12/24 10:28:12;;;;;;;26.88;13.07;;;;;;;;;;8360003;28;20053;-76
2021/12/24 10:32:18;;;;;;;23.38;12.55;;;;;;;;;;8356461;28;20049;-76
2021/12/24 10:36:23;;;;;;;27.42;13.13;;;;;;;;;;8379194;28;20056;-78
2021/12/24 10:40:31;;;;;;;23.58;12.00;;;;;;;;;;8380731;28;20094;-77
2021/12/24 10:44:38;;;;;;;23.55;13.15;;;;;;;;;;8379136;28;20407;-76
2021/12/24 10:48:57;;;;;;;23.42;12.07;;;;;;;;;;8393489;28;20053;-76
2021/12/24 10:53:17;;;;;;;29.60;14.05;;;;;;;;;;8364825;28;20048;-77
2021/12/24 10:57:23;;;;;;;28.38;14.30;;;;;;;;;;8393512;28;20048;-76
2021/12/24 11:01:26;;;;;;;32.10;14.88;;;;;;;;;;8397518;28;20048;-76
2021/12/24 11:05:35;;;;;;;34.10;14.57;;;;;;;;;;8397410;28;20041;-77
2021/12/24 11:10:03;;;;;;;29.10;13.15;;;;;;;;;;8396720;28;20143;-76
2021/12/24 11:14:27;;;;;;;34.17;16.17;;;;;;;;;;8664905;22;20118;-76
2021/12/24 11:18:41;;;;;;;29.80;14.55;;;;;;;;;;8415248;28;20051;-76
2021/12/24 11:23:01;;;;;;;27.42;14.07;;;;;;;;;;8396262;28;20044;-76
2021/12/24 11:27:18;;;;;;;26.73;12.95;;;;;;;;;;8398537;28;20063;-77
2021/12/24 11:31:57;;;;;;;31.92;15.73;;;;;;;;;;8415654;28;20460;-76
2021/12/24 11:36:17;;;;;;;20.95;11.77;;;;;;;;;;8399093;28;20074;-77
2021/12/24 11:45:44;;;;;;;27.75;13.18;;;;;;;;;;8396448;28;20040;-77
2021/12/24 11:54:19;;;;;;;22.75;11.73;;;;;;;;;;8395733;28;20380;-76
2021/12/24 12:03:11;;;;;;;26.60;13.07;;;;;;;;;;8396653;28;20064;-76
2021/12/24 12:07:29;;;;;;;23.45;13.32;;;;;;;;;;8398186;28;20325;-76
2021/12/24 12:11:51;;;;;;;38.08;16.20;;;;;;;;;;8415721;28;20086;-76
2021/12/24 12:16:04;;;;;;;35.08;14.70;;;;;;;;;;8418032;28;20048;-77
2021/12/24 12:20:41;;;;;;;52.55;19.30;;;;;;;;;;8404694;28;20044;-77
2021/12/24 12:25:06;;;;;;;47.05;18.90;;;;;;;;;;8421757;28;20127;-79
2021/12/24 12:30:04;;;;;;;39.50;17.10;;;;;;;;;;8410311;28;20064;-78
2021/12/24 12:34:46;;;;;;;35.60;14.82;;;;;;;;;;8376692;28;20128;-77
2021/12/24 12:38:55;;;;;;;41.45;18.40;;;;;;;;;;8384608;28;20329;-77
2021/12/24 12:43:07;;;;;;;32.42;16.40;;;;;;;;;;8387590;28;20064;-77
2021/12/24 12:47:17;;;;;;;31.63;15.30;;;;;;;;;;8420165;28;20045;-77
2021/12/24 12:51:23;;;;;;;30.10;16.48;;;;;;;;;;8419231;28;20041;-77
2021/12/24 12:55:34;;;;;;;25.17;13.98;;;;;;;;;;8390314;28;20053;-77
2021/12/24 12:59:38;;;;;;;41.47;18.63;;;;;;;;;;8388695;28;20051;-78
2021/12/24 13:04:19;;;;;;;34.42;16.40;;;;;;;;;;8402296;28;20045;-77
2021/12/24 13:08:25;;;;;;;29.45;16.10;;;;;;;;;;8397912;28;20036;-82
2021/12/24 13:12:38;;;;;;;33.67;16.42;;;;;;;;;;8402345;28;20068;-77
2021/12/24 13:16:54;;;;;;;31.20;17.35;;;;;;;;;;8416929;28;20044;-77
2021/12/24 13:25:51;;;;;;;20.40;10.48;;;;;;;;;;8383368;28;20052;-76
2021/12/24 13:30:34;;;;;;;21.90;10.88;;;;;;;;;;8390532;28;20045;-78
2021/12/24 13:39:48;;;;;;;;;;;;;;;;;;8399066;28;20139;-74
2021/12/24 13:44:17;;;;;;;21.65;11.02;;;;;;;;;;8412697;28;20101;-75
2021/12/24 13:49:15;;;;;;;22.00;12.15;;;;;;;;;;8393681;28;20080;-74
2021/12/24 13:58:12;;;;;;;35.03;14.52;;;;;;;;;;8388675;28;20081;-74
2021/12/24 14:02:42;;;;;;;29.55;12.95;;;;;;;;;;8386079;28;20052;-75
2021/12/24 14:07:34;;;;;;;78.93;26.13;;;;;;;;;;8387693;28;20828;-75
2021/12/24 14:12:07;;;;;;;31.42;15.13;;;;;;;;;;8395971;28;20229;-79
2021/12/24 14:25:57;;;;;;;26.13;12.82;;;;;;;;;;8403901;28;20045;-85
2021/12/24 14:30:15;;;;;;;30.60;14.38;;;;;;;;;;8396196;28;20396;-76
2021/12/24 14:34:37;;;;;;;53.22;24.33;;;;;;;;;;8398719;28;20393;-76
2021/12/24 14:39:21;;;;;;;29.15;14.45;;;;;;;;;;8411121;28;20076;-76
2021/12/24 14:43:44;;;;;;;61.97;26.60;;;;;;;;;;8397351;28;20044;-77
2021/12/24 14:48:20;;;;;;;25.00;11.98;;;;;;;;;;8397882;28;20288;-81
2021/12/24 14:52:39;;;;;;;26.52;11.77;;;;;;;;;;8397297;28;20060;-83
2021/12/24 14:56:53;;;;;;;41.17;17.10;;;;;;;;;;8396596;28;20064;-83
2021/12/24 15:01:33;;;;;;;37.90;15.23;;;;;;;;;;8397737;28;20138;-76
2021/12/24 15:05:43;;;;;;;51.00;16.70;;;;;;;;;;8416036;28;20040;-77
2021/12/24 15:09:47;;;;;;;55.85;20.02;;;;;;;;;;8398593;28;20105;-85
2021/12/24 15:14:12;;;;;;;57.28;20.73;;;;;;;;;;8395942;28;20110;-77
2021/12/24 15:18:24;;;;;;;60.72;21.83;;;;;;;;;;8396789;28;20118;-77
2021/12/24 15:22:32;;;;;;;73.95;24.00;;;;;;;;;;8396098;28;20048;-77
2021/12/24 15:27:07;;;;;;;;;;;;;;;;;;;;;
2021/12/24 15:31:25;;;;;;;73.55;23.02;;;;;;;;;;8414860;28;20055;-83
2021/12/24 15:35:42;;;;;;;62.55;22.80;;;;;;;;;;8416383;28;20078;-78
2021/12/24 15:40:01;;;;;;;86.70;25.27;;;;;;;;;;8397685;28;20067;-79
2021/12/24 15:44:20;;;;;;;81.53;25.38;;;;;;;;;;8398115;28;20045;-79
2021/12/24 15:48:27;;;;;;;91.70;32.45;;;;;;;;;;8398110;28;20044;-78
2021/12/24 15:52:45;;;;;;;61.40;25.60;;;;;;;;;;8397986;28;20048;-77
2021/12/24 15:56:52;;;;;;;57.75;24.67;;;;;;;;;;8417881;28;20229;-78
2021/12/24 16:01:01;;;;;;;67.88;27.48;;;;;;;;;;8417515;28;20044;-87
2021/12/24 16:05:07;;;;;;;55.15;25.27;;;;;;;;;;8398392;28;20240;-77
2021/12/24 16:09:23;;;;;;;35.65;16.23;;;;;;;;;;8415290;28;20048;-77
2021/12/24 16:13:33;;;;;;;30.30;15.65;;;;;;;;;;8422974;28;20056;-78
2021/12/24 16:17:41;;;;;;;38.42;18.45;;;;;;;;;;8408083;28;20055;-84
2021/12/24 16:21:48;;;;;;;42.13;19.98;;;;;;;;;;8422903;28;20116;-78
2021/12/24 16:25:56;;;;;;;33.92;16.63;;;;;;;;;;8399942;28;20044;-77
2021/12/24 16:30:14;;;;;;;37.85;17.60;;;;;;;;;;8397306;28;20052;-77
2021/12/24 16:34:24;;;;;;;52.30;22.80;;;;;;;;;;8397101;28;20044;-77
2021/12/24 16:38:32;;;;;;;43.83;19.85;;;;;;;;;;8415345;28;20234;-78
2021/12/24 16:42:48;;;;;;;35.28;17.70;;;;;;;;;;8419253;28;20060;-89
2021/12/24 16:46:56;;;;;;;34.53;16.20;;;;;;;;;;8421456;28;20115;-85
2021/12/24 16:51:00;;;;;;;44.10;20.02;;;;;;;;;;8403952;28;20056;-84
2021/12/24 16:55:09;;;;;;;36.53;17.20;;;;;;;;;;8419041;28;20036;-77
2021/12/24 16:59:20;;;;;;;31.35;15.80;;;;;;;;;;8401496;28;20045;-78
2021/12/24 17:03:29;;;;;;;33.67;17.05;;;;;;;;;;8419655;28;20040;-77
2021/12/24 17:12:06;;;;;;;56.37;23.07;;;;;;;;;;8403052;28;20047;-89
2021/12/24 17:16:11;;;;;;;56.80;24.83;;;;;;;;;;8404172;28;20045;-88
2021/12/24 17:20:17;;;;;;;41.70;17.40;;;;;;;;;;8403734;28;20341;-87
2021/12/24 17:24:26;;;;;;;30.63;13.77;;;;;;;;;;8421695;28;20108;-77
2021/12/24 17:28:32;;;;;;;26.73;13.10;;;;;;;;;;8402931;28;20051;-77
2021/12/24 17:32:42;;;;;;;29.23;13.45;;;;;;;;;;8419799;28;20044;-88
2021/12/24 17:37:00;;;;;;;28.07;12.93;;;;;;;;;;8402182;28;20044;-88
2021/12/24 17:41:14;;;;;;;27.77;11.88;;;;;;;;;;8419515;28;20341;-80
2021/12/24 17:45:31;;;;;;;27.38;12.00;;;;;;;;;;8419761;28;20040;-84
2021/12/24 17:49:49;;;;;;;19.40;9.80;;;;;;;;;;8401605;28;20111;-89
2021/12/24 17:53:55;;;;;;;18.88;8.48;;;;;;;;;;8401449;28;20044;-87
2021/12/24 17:58:04;;;;;;;16.08;7.97;;;;;;;;;;8400941;28;20351;-87
2021/12/24 18:02:27;;;;;;;16.08;8.07;;;;;;;;;;8419447;28;20225;-78
2021/12/24 18:06:40;;;;;;;18.42;10.30;;;;;;;;;;8418900;28;20044;-89
2021/12/24 18:10:47;;;;;;;22.10;10.75;;;;;;;;;;8418901;28;20043;-88
2021/12/24 18:14:55;;;;;;;35.97;15.65;;;;;;;;;;8385028;28;20053;-82
2021/12/24 18:19:02;;;;;;;30.02;13.45;;;;;;;;;;8387102;28;20063;-79
2021/12/24 18:23:14;;;;;;;18.35;8.55;;;;;;;;;;8389217;28;20057;-78
2021/12/24 18:31:42;;;;;;;36.95;12.50;;;;;;;;;;8382362;28;20035;-78
2021/12/24 18:35:50;;;;;;;38.75;13.38;;;;;;;;;;8378988;28;20152;-78
2021/12/24 18:44:39;;;;;;;22.73;10.85;;;;;;;;;;8353098;28;20123;-78
2021/12/24 18:48:52;;;;;;;25.75;11.57;;;;;;;;;;8370526;28;20068;-78
2021/12/24 18:53:14;;;;;;;14.65;7.00;;;;;;;;;;8363300;28;20056;-78
2021/12/24 18:57:23;;;;;;;16.40;7.85;;;;;;;;;;8370990;28;20257;-78
2021/12/24 19:01:36;;;;;;;18.02;7.57;;;;;;;;;;8373643;28;20087;-78
2021/12/24 19:06:04;;;;;;;17.42;7.88;;;;;;;;;;8379363;28;20054;-78
2021/12/24 19:10:14;;;;;;;16.35;8.07;;;;;;;;;;8377458;28;20250;-78
2021/12/24 19:14:29;;;;;;;20.00;7.90;;;;;;;;;;8369274;28;20053;-79
2021/12/24 19:18:35;;;;;;;14.27;7.30;;;;;;;;;;8367210;28;20107;-78
2021/12/24 19:22:55;;;;;;;11.95;6.50;;;;;;;;;;8361803;28;20045;-78
2021/12/24 19:27:08;;;;;;;15.40;7.22;;;;;;;;;;8352386;28;20048;-78
2021/12/24 19:31:30;;;;;;;21.60;9.70;;;;;;;;;;8352135;28;20052;-78
2021/12/24 19:35:41;;;;;;;21.75;8.77;;;;;;;;;;8383801;28;20070;-78
2021/12/24 19:44:15;;;;;;;17.85;9.00;;;;;;;;;;8383513;28;20056;-79
2021/12/24 19:48:33;;;;;;;19.45;9.00;;;;;;;;;;8359301;28;20056;-79
2021/12/24 19:52:51;;;;;;;17.90;8.80;;;;;;;;;;8374072;28;20045;-79
2021/12/24 19:57:11;;;;;;;21.75;9.45;;;;;;;;;;8362933;28;20049;-81
2021/12/24 20:01:45;;;;;;;17.30;9.13;;;;;;;;;;8367216;28;20048;-80
2021/12/24 20:06:05;;;;;;;18.50;8.82;;;;;;;;;;8376520;28;20065;-78
2021/12/24 20:10:26;;;;;;;21.08;9.43;;;;;;;;;;8384069;28;20045;-78
2021/12/24 20:14:52;;;;;;;17.33;8.68;;;;;;;;;;8383454;28;20112;-78
2021/12/24 20:19:01;;;;;;;21.17;8.90;;;;;;;;;;8374958;28;20052;-78
2021/12/24 20:23:13;;;;;;;16.35;8.77;;;;;;;;;;8391027;28;20044;-78
2021/12/24 20:27:30;;;;;;;20.42;9.20;;;;;;;;;;8413262;28;20029;-79
2021/12/24 20:36:12;;;;;;;17.75;8.73;;;;;;;;;;8410973;28;20111;-78
2021/12/24 20:40:41;;;;;;;18.92;8.40;;;;;;;;;;8424544;28;20159;-78
2021/12/24 20:44:59;;;;;;;21.48;9.95;;;;;;;;;;8386302;28;20060;-78
2021/12/24 20:49:05;;;;;;;23.02;10.30;;;;;;;;;;8383391;28;20051;-78
2021/12/24 20:53:17;;;;;;;22.95;9.60;;;;;;;;;;8401762;28;20060;-79
2021/12/24 20:57:40;;;;;;;20.30;9.80;;;;;;;;;;8401730;28;20040;-78
2021/12/24 21:01:58;;;;;;;21.60;10.40;;;;;;;;;;8384448;28;20040;-79
2021/12/24 21:10:50;;;;;;;20.15;8.95;;;;;;;;;;8409799;28;20060;-78
2021/12/24 21:15:03;;;;;;;21.02;9.80;;;;;;;;;;8386127;28;20056;-78
2021/12/24 21:23:59;;;;;;;15.05;7.55;;;;;;;;;;8384383;28;20056;-77
2021/12/24 21:29:06;;;;;;;20.13;9.00;;;;;;;;;;8378821;28;20299;-77
2021/12/24 21:33:34;;;;;;;16.85;8.45;;;;;;;;;;8383409;28;20076;-84
2021/12/24 21:38:22;;;;;;;15.25;8.50;;;;;;;;;;8361631;28;20083;-78
2021/12/24 21:42:46;;;;;;;29.45;13.43;;;;;;;;;;8384102;28;20056;-77
2021/12/24 21:47:39;;;;;;;23.25;11.88;;;;;;;;;;8383684;28;20200;-78
2021/12/24 21:52:33;;;;;;;24.00;10.95;;;;;;;;;;8360815;28;20041;-78
2021/12/24 21:57:06;;;;;;;24.30;10.60;;;;;;;;;;8372648;28;20055;-77
2021/12/24 22:01:32;;;;;;;19.60;10.40;;;;;;;;;;8383835;28;20044;-77
2021/12/24 22:06:08;;;;;;;25.55;11.80;;;;;;;;;;8383544;28;20090;-77
2021/12/24 22:15:25;;;;;;;27.73;12.23;;;;;;;;;;8395517;28;20052;-78
2021/12/24 22:19:51;;;;;;;26.23;12.50;;;;;;;;;;8395193;28;20049;-78
2021/12/24 22:24:12;;;;;;;32.03;14.23;;;;;;;;;;8393800;28;20045;-79
2021/12/24 22:33:02;;;;;;;34.38;16.67;;;;;;;;;;8393481;28;20115;-78
2021/12/24 22:37:41;;;;;;;32.72;13.65;;;;;;;;;;8414780;28;20051;-80
2021/12/24 22:41:56;;;;;;;28.27;12.32;;;;;;;;;;8409377;28;20053;-79
2021/12/24 22:46:17;;;;;;;33.05;13.35;;;;;;;;;;8408161;28;20055;-79
2021/12/24 22:54:44;;;;;;;39.28;16.00;;;;;;;;;;8398666;28;20137;-78
2021/12/24 22:58:49;;;;;;;37.20;15.55;;;;;;;;;;8415604;28;20111;-79
2021/12/24 23:03:06;;;;;;;36.67;15.52;;;;;;;;;;8397795;28;20330;-78
2021/12/24 23:07:09;;;;;;;31.38;14.40;;;;;;;;;;8415879;28;20119;-78
2021/12/24 23:11:22;;;;;;;34.15;14.75;;;;;;;;;;8414552;28;20207;-78
2021/12/24 23:15:26;;;;;;;31.67;13.00;;;;;;;;;;8393786;28;20314;-78
2021/12/24 23:19:34;;;;;;;39.72;14.77;;;;;;;;;;8414280;28;20048;-78
2021/12/24 23:23:37;;;;;;;37.10;15.20;;;;;;;;;;8397667;28;20040;-78
2021/12/24 23:27:51;;;;;;;33.78;14.55;;;;;;;;;;8413093;28;20072;-79
2021/12/24 23:31:56;;;;;;;32.95;14.02;;;;;;;;;;8396528;28;20041;-79
2021/12/24 23:36:04;;;;;;;32.20;14.07;;;;;;;;;;8398301;28;20071;-77
2021/12/24 23:40:13;;;;;;;30.73;12.88;;;;;;;;;;8418082;28;20048;-78
2021/12/24 23:44:25;;;;;;;27.30;13.23;;;;;;;;;;8399480;28;20078;-77
2021/12/24 23:48:34;;;;;;;35.10;15.18;;;;;;;;;;8398951;28;20047;-78
2021/12/24 23:52:48;;;;;;;41.33;16.40;;;;;;;;;;8400471;28;20056;-77
2021/12/24 23:56:51;;;;;;;35.17;14.75;;;;;;;;;;8404791;28;20052;-78
